sensor_id;sensor_type;location;lat;lon;timestamp;pressure;altitude;pressure_sealevel;temperature;humidity
5872;BME280;2962;51.312;7.378;2023-04-27T00:00:50;97713.72;;;2.20;100.00
5872;BME280;2962;51.312;7.378;2023-04-27T00:03:16;97716.28;;;2.26;100.00
5872;BME280;2962;51.312;7.378;2023-04-27T00:05:41;97719.41;;;2.19;100.00
5872;BME280;2962;51.312;7.378;2023-04-27T00:08:07;97706.88;;;2.14;100.00
5872;BME280;2962;51.312;7.378;2023-04-27T00:10:32;97718.50;;;2.24;100.00
5872;BME280;2962;51.312;7.378;2023-04-27T00:12:58;97704.66;;;2.08;100.00
5872;BME280;2962;51.312;7.378;2023-04-27T00:15:23;97721.38;;;2.27;100.00
5872;BME280;2962;51.312;7.378;2023-04-27T00:17:49;97722.16;;;2.28;100.00
5872;BME280;2962;51.312;7.378;2023-04-27T00:20:14;97725.47;;;2.25;100.00
5872;BME280;2962;51.312;7.378;2023-04-27T00:22:39;97708.91;;;2.09;100.00
5872;BME280;2962;51.312;7.378;2023-04-27T00:25:05;97724.25;;;2.08;100.00
5872;BME280;2962;51.312;7.378;2023-04-27T00:27:31;97723.19;;;1.95;100.00
5872;BME280;2962;51.312;7.378;2023-04-27T00:29:56;97721.75;;;1.89;100.00
5872;BME280;2962;51.312;7.378;2023-04-27T00:32:22;97725.94;;;1.82;100.00
5872;BME280;2962;51.312;7.378;2023-04-27T00:34:47;97718.56;;;1.87;100.00
5872;BME280;2962;51.312;7.378;2023-04-27T00:37:12;97713.31;;;1.82;100.00
5872;BME280;2962;51.312;7.378;2023-04-27T00:39:38;97724.06;;;1.82;100.00
5872;BME280;2962;51.312;7.378;2023-04-27T00:42:03;97726.75;;;1.82;100.00
5872;BME280;2962;51.312;7.378;2023-04-27T00:44:29;97712.09;;;1.88;100.00
5872;BME280;2962;51.312;7.378;2023-04-27T00:46:54;97715.88;;;1.87;100.00
5872;BME280;2962;51.312;7.378;2023-04-27T00:49:20;97722.94;;;1.83;100.00
5872;BME280;2962;51.312;7.378;2023-04-27T00:51:46;97730.63;;;1.76;100.00
5872;BME280;2962;51.312;7.378;2023-04-27T00:54:14;97722.03;;;1.65;100.00
5872;BME280;2962;51.312;7.378;2023-04-27T00:56:40;97722.19;;;1.69;100.00
5872;BME280;2962;51.312;7.378;2023-04-27T00:59:06;97737.50;;;1.68;100.00
5872;BME280;2962;51.312;7.378;2023-04-27T01:01:31;97727.22;;;1.62;100.00
5872;BME280;2962;51.312;7.378;2023-04-27T01:03:56;97736.84;;;1.63;100.00
5872;BME280;2962;51.312;7.378;2023-04-27T01:06:22;97738.53;;;1.59;100.00
5872;BME280;2962;51.312;7.378;2023-04-27T01:08:47;97729.25;;;1.65;100.00
5872;BME280;2962;51.312;7.378;2023-04-27T01:11:12;97738.03;;;1.57;100.00
5872;BME280;2962;51.312;7.378;2023-04-27T01:13:37;97743.13;;;1.58;100.00
5872;BME280;2962;51.312;7.378;2023-04-27T01:16:03;97743.31;;;1.62;100.00
5872;BME280;2962;51.312;7.378;2023-04-27T01:18:28;97756.38;;;1.55;100.00
5872;BME280;2962;51.312;7.378;2023-04-27T01:20:54;97740.06;;;1.51;100.00
5872;BME280;2962;51.312;7.378;2023-04-27T01:23:20;97738.94;;;1.52;100.00
5872;BME280;2962;51.312;7.378;2023-04-27T01:25:45;97744.59;;;1.64;100.00
5872;BME280;2962;51.312;7.378;2023-04-27T01:28:10;97736.34;;;1.61;100.00
5872;BME280;2962;51.312;7.378;2023-04-27T01:30:36;97731.94;;;1.65;100.00
5872;BME280;2962;51.312;7.378;2023-04-27T01:33:02;97729.69;;;1.58;100.00
5872;BME280;2962;51.312;7.378;2023-04-27T01:35:27;97736.97;;;1.58;100.00
5872;BME280;2962;51.312;7.378;2023-04-27T01:37:53;97748.78;;;1.57;100.00
5872;BME280;2962;51.312;7.378;2023-04-27T01:40:18;97746.69;;;1.54;100.00
5872;BME280;2962;51.312;7.378;2023-04-27T01:42:43;97742.16;;;1.54;100.00
5872;BME280;2962;51.312;7.378;2023-04-27T01:45:09;97744.13;;;1.49;100.00
5872;BME280;2962;51.312;7.378;2023-04-27T01:47:35;97742.53;;;1.48;100.00
5872;BME280;2962;51.312;7.378;2023-04-27T01:50:00;97745.63;;;1.41;100.00
5872;BME280;2962;51.312;7.378;2023-04-27T01:52:26;97730.56;;;1.31;100.00
5872;BME280;2962;51.312;7.378;2023-04-27T01:54:51;97729.25;;;1.29;100.00
5872;BME280;2962;51.312;7.378;2023-04-27T01:57:16;97751.13;;;1.36;100.00
5872;BME280;2962;51.312;7.378;2023-04-27T01:59:42;97747.72;;;1.30;100.00
5872;BME280;2962;51.312;7.378;2023-04-27T02:02:07;97758.38;;;1.35;100.00
5872;BME280;2962;51.312;7.378;2023-04-27T02:04:32;97750.41;;;1.30;100.00
5872;BME280;2962;51.312;7.378;2023-04-27T02:07:00;97758.47;;;1.30;100.00
5872;BME280;2962;51.312;7.378;2023-04-27T02:09:25;97755.19;;;1.33;100.00
5872;BME280;2962;51.312;7.378;2023-04-27T02:11:51;97757.88;;;1.33;100.00
5872;BME280;2962;51.312;7.378;2023-04-27T02:14:16;97768.03;;;1.36;100.00
5872;BME280;2962;51.312;7.378;2023-04-27T02:16:41;97766.13;;;1.37;100.00
5872;BME280;2962;51.312;7.378;2023-04-27T02:19:06;97766.03;;;1.28;100.00
5872;BME280;2962;51.312;7.378;2023-04-27T02:21:32;97769.72;;;1.32;100.00
5872;BME280;2962;51.312;7.378;2023-04-27T02:23:57;97776.47;;;1.30;100.00
5872;BME280;2962;51.312;7.378;2023-04-27T02:26:23;97774.56;;;1.30;100.00
5872;BME280;2962;51.312;7.378;2023-04-27T02:28:53;97769.19;;;1.30;100.00
5872;BME280;2962;51.312;7.378;2023-04-27T02:31:19;97755.50;;;1.18;100.00
5872;BME280;2962;51.312;7.378;2023-04-27T02:33:44;97768.91;;;1.18;100.00
5872;BME280;2962;51.312;7.378;2023-04-27T02:36:09;97755.50;;;1.18;100.00
5872;BME280;2962;51.312;7.378;2023-04-27T02:38:35;97758.19;;;1.18;100.00
5872;BME280;2962;51.312;7.378;2023-04-27T02:41:00;97753.91;;;1.17;100.00
5872;BME280;2962;51.312;7.378;2023-04-27T02:43:26;97760.28;;;1.21;100.00
5872;BME280;2962;51.312;7.378;2023-04-27T02:45:51;97751.03;;;1.13;100.00
5872;BME280;2962;51.312;7.378;2023-04-27T02:48:16;97753.81;;;1.22;100.00
5872;BME280;2962;51.312;7.378;2023-04-27T02:50:42;97757.91;;;1.19;100.00
5872;BME280;2962;51.312;7.378;2023-04-27T02:53:09;97742.78;;;1.10;100.00
5872;BME280;2962;51.312;7.378;2023-04-27T02:55:35;97762.75;;;1.17;100.00
5872;BME280;2962;51.312;7.378;2023-04-27T02:58:01;97749.16;;;1.14;100.00
5872;BME280;2962;51.312;7.378;2023-04-27T03:00:26;97755.63;;;1.13;100.00
5872;BME280;2962;51.312;7.378;2023-04-27T03:02:51;97756.09;;;1.15;100.00
5872;BME280;2962;51.312;7.378;2023-04-27T03:05:17;97758.50;;;1.16;100.00
5872;BME280;2962;51.312;7.378;2023-04-27T03:07:43;97757.09;;;1.05;100.00
5872;BME280;2962;51.312;7.378;2023-04-27T03:10:08;97740.22;;;1.05;100.00
5872;BME280;2962;51.312;7.378;2023-04-27T03:12:34;97750.53;;;0.97;100.00
5872;BME280;2962;51.312;7.378;2023-04-27T03:14:59;97748.34;;;1.00;100.00
5872;BME280;2962;51.312;7.378;2023-04-27T03:17:25;97755.72;;;1.08;100.00
5872;BME280;2962;51.312;7.378;2023-04-27T03:19:51;97743.19;;;1.03;100.00
5872;BME280;2962;51.312;7.378;2023-04-27T03:22:16;97746.66;;;1.04;100.00
5872;BME280;2962;51.312;7.378;2023-04-27T03:24:41;97740.81;;;1.02;100.00
5872;BME280;2962;51.312;7.378;2023-04-27T03:27:07;97740.81;;;1.02;100.00
5872;BME280;2962;51.312;7.378;2023-04-27T03:29:32;97737.41;;;0.96;100.00
5872;BME280;2962;51.312;7.378;2023-04-27T03:31:57;97713.41;;;0.77;100.00
5872;BME280;2962;51.312;7.378;2023-04-27T03:34:23;97730.38;;;0.86;100.00
5872;BME280;2962;51.312;7.378;2023-04-27T03:36:48;97735.22;;;0.84;100.00
5872;BME280;2962;51.312;7.378;2023-04-27T03:39:13;97730.38;;;0.86;100.00
5872;BME280;2962;51.312;7.378;2023-04-27T03:41:39;97738.53;;;0.81;100.00
5872;BME280;2962;51.312;7.378;2023-04-27T03:44:04;97740.00;;;0.87;100.00
5872;BME280;2962;51.312;7.378;2023-04-27T03:46:30;97745.78;;;0.94;100.00
5872;BME280;2962;51.312;7.378;2023-04-27T03:48:55;97743.09;;;0.94;100.00
5872;BME280;2962;51.312;7.378;2023-04-27T03:51:20;97735.34;;;0.79;100.00
5872;BME280;2962;51.312;7.378;2023-04-27T03:53:46;97740.59;;;0.84;100.00
5872;BME280;2962;51.312;7.378;2023-04-27T03:56:11;97751.66;;;0.96;100.00
5872;BME280;2962;51.312;7.378;2023-04-27T03:58:36;97756.41;;;0.86;100.00
5872;BME280;2962;51.312;7.378;2023-04-27T04:01:02;97761.28;;;0.97;100.00
5872;BME280;2962;51.312;7.378;2023-04-27T04:03:27;97744.16;;;0.80;100.00
5872;BME280;2962;51.312;7.378;2023-04-27T04:05:52;97753.34;;;0.92;100.00
5872;BME280;2962;51.312;7.378;2023-04-27T04:08:18;97755.09;;;0.83;100.00
5872;BME280;2962;51.312;7.378;2023-04-27T04:10:43;97766.81;;;0.87;100.00
5872;BME280;2962;51.312;7.378;2023-04-27T04:13:08;97758.50;;;0.89;100.00
5872;BME280;2962;51.312;7.378;2023-04-27T04:15:33;97768.59;;;0.92;100.00
5872;BME280;2962;51.312;7.378;2023-04-27T04:17:59;97770.59;;;0.86;100.00
5872;BME280;2962;51.312;7.378;2023-04-27T04:20:24;97775.56;;;0.79;100.00
5872;BME280;2962;51.312;7.378;2023-04-27T04:22:49;97769.09;;;0.80;100.00
5872;BME280;2962;51.312;7.378;2023-04-27T04:25:15;97774.25;;;0.77;100.00
5872;BME280;2962;51.312;7.378;2023-04-27T04:27:40;97774.38;;;0.85;100.00
5872;BME280;2962;51.312;7.378;2023-04-27T04:30:06;97778.66;;;0.86;100.00
5872;BME280;2962;51.312;7.378;2023-04-27T04:32:32;97773.38;;;0.95;100.00
5872;BME280;2962;51.312;7.378;2023-04-27T04:34:58;97776.84;;;0.95;100.00
5872;BME280;2962;51.312;7.378;2023-04-27T04:37:25;97780.34;;;0.96;100.00
5872;BME280;2962;51.312;7.378;2023-04-27T04:39:51;97779.25;;;0.97;100.00
5872;BME280;2962;51.312;7.378;2023-04-27T04:42:16;97786.53;;;0.96;100.00
5872;BME280;2962;51.312;7.378;2023-04-27T04:44:41;97783.81;;;1.10;100.00
5872;BME280;2962;51.312;7.378;2023-04-27T04:47:07;97784.34;;;1.12;100.00
5872;BME280;2962;51.312;7.378;2023-04-27T04:49:34;97783.91;;;1.19;100.00
5872;BME280;2962;51.312;7.378;2023-04-27T04:51:59;97783.75;;;1.15;100.00
5872;BME280;2962;51.312;7.378;2023-04-27T04:54:25;97786.31;;;1.20;100.00
5872;BME280;2962;51.312;7.378;2023-04-27T04:56:50;97780.66;;;1.22;100.00
5872;BME280;2962;51.312;7.378;2023-04-27T04:59:16;97781.75;;;1.35;100.00
5872;BME280;2962;51.312;7.378;2023-04-27T05:01:41;97766.03;;;1.28;100.00
5872;BME280;2962;51.312;7.378;2023-04-27T05:04:07;97777.94;;;1.50;100.00
5872;BME280;2962;51.312;7.378;2023-04-27T05:06:32;97776.75;;;1.42;100.00
5872;BME280;2962;51.312;7.378;2023-04-27T05:08:57;97776.84;;;1.51;100.00
5872;BME280;2962;51.312;7.378;2023-04-27T05:11:23;97771.56;;;1.59;100.00
5872;BME280;2962;51.312;7.378;2023-04-27T05:13:48;97775.84;;;1.60;100.00
5872;BME280;2962;51.312;7.378;2023-04-27T05:16:13;97778.00;;;1.72;100.00
5872;BME280;2962;51.312;7.378;2023-04-27T05:18:39;97767.25;;;1.72;100.00
5872;BME280;2962;51.312;7.378;2023-04-27T05:21:04;97774.31;;;1.82;100.00
5872;BME280;2962;51.312;7.378;2023-04-27T05:23:30;97787.94;;;1.85;100.00
5872;BME280;2962;51.312;7.378;2023-04-27T05:25:55;97783.53;;;1.89;100.00
5872;BME280;2962;51.312;7.378;2023-04-27T05:28:20;97771.50;;;1.87;100.00
5872;BME280;2962;51.312;7.378;2023-04-27T05:30:46;97781.84;;;1.93;100.00
5872;BME280;2962;51.312;7.378;2023-04-27T05:33:11;97768.88;;;1.95;100.00
5872;BME280;2962;51.312;7.378;2023-04-27T05:35:36;97792.41;;;2.12;100.00
5872;BME280;2962;51.312;7.378;2023-04-27T05:38:02;97795.16;;;2.21;100.00
5872;BME280;2962;51.312;7.378;2023-04-27T05:40:28;97795.66;;;2.23;100.00
5872;BME280;2962;51.312;7.378;2023-04-27T05:42:53;97793.78;;;2.24;100.00
5872;BME280;2962;51.312;7.378;2023-04-27T05:45:19;97798.59;;;2.35;100.00
5872;BME280;2962;51.312;7.378;2023-04-27T05:47:45;97811.06;;;2.54;100.00
5872;BME280;2962;51.312;7.378;2023-04-27T05:50:10;97817.41;;;2.58;100.00
5872;BME280;2962;51.312;7.378;2023-04-27T05:52:35;97807.97;;;2.69;100.00
5872;BME280;2962;51.312;7.378;2023-04-27T05:55:01;97813.25;;;2.74;100.00
5872;BME280;2962;51.312;7.378;2023-04-27T05:57:26;97815.78;;;2.79;100.00
5872;BME280;2962;51.312;7.378;2023-04-27T05:59:52;97827.84;;;2.82;100.00
5872;BME280;2962;51.312;7.378;2023-04-27T06:02:18;97814.69;;;2.80;100.00
5872;BME280;2962;51.312;7.378;2023-04-27T06:04:44;97823.34;;;3.00;100.00
5872;BME280;2962;51.312;7.378;2023-04-27T06:07:13;97817.94;;;3.00;100.00
5872;BME280;2962;51.312;7.378;2023-04-27T06:09:39;97826.56;;;3.10;100.00
5872;BME280;2962;51.312;7.378;2023-04-27T06:12:05;97827.88;;;3.22;100.00
5872;BME280;2962;51.312;7.378;2023-04-27T06:14:32;97829.00;;;3.21;100.00
5872;BME280;2962;51.312;7.378;2023-04-27T06:16:58;97830.47;;;3.35;100.00
5872;BME280;2962;51.312;7.378;2023-04-27T06:19:23;97832.06;;;3.36;100.00
5872;BME280;2962;51.312;7.378;2023-04-27T06:21:49;97832.75;;;3.51;100.00
5872;BME280;2962;51.312;7.378;2023-04-27T06:24:15;97826.59;;;3.67;100.00
5872;BME280;2962;51.312;7.378;2023-04-27T06:26:41;97817.94;;;4.23;100.00
5872;BME280;2962;51.312;7.378;2023-04-27T06:29:06;97827.78;;;4.45;100.00
5872;BME280;2962;51.312;7.378;2023-04-27T06:31:32;97818.09;;;4.52;100.00
5872;BME280;2962;51.312;7.378;2023-04-27T06:33:58;97814.25;;;4.71;100.00
5872;BME280;2962;51.312;7.378;2023-04-27T06:36:24;97811.38;;;4.76;100.00
5872;BME280;2962;51.312;7.378;2023-04-27T06:38:50;97817.25;;;4.86;100.00
5872;BME280;2962;51.312;7.378;2023-04-27T06:41:19;97811.50;;;4.88;100.00
5872;BME280;2962;51.312;7.378;2023-04-27T06:43:45;97815.31;;;4.96;100.00
5872;BME280;2962;51.312;7.378;2023-04-27T06:46:10;97813.50;;;5.17;100.00
5872;BME280;2962;51.312;7.378;2023-04-27T06:48:36;97812.91;;;5.41;100.00
5872;BME280;2962;51.312;7.378;2023-04-27T06:51:01;97813.84;;;5.45;100.00
5872;BME280;2962;51.312;7.378;2023-04-27T06:53:26;97814.59;;;5.93;100.00
5872;BME280;2962;51.312;7.378;2023-04-27T06:55:51;97805.28;;;6.02;100.00
5872;BME280;2962;51.312;7.378;2023-04-27T06:58:17;97812.22;;;6.12;100.00
5872;BME280;2962;51.312;7.378;2023-04-27T07:00:42;97814.31;;;6.06;100.00
5872;BME280;2962;51.312;7.378;2023-04-27T07:03:07;97811.09;;;5.83;100.00
5872;BME280;2962;51.312;7.378;2023-04-27T07:05:33;97805.38;;;5.85;100.00
5872;BME280;2962;51.312;7.378;2023-04-27T07:07:58;97811.88;;;5.84;100.00
5872;BME280;2962;51.312;7.378;2023-04-27T07:10:23;97805.03;;;5.86;100.00
5872;BME280;2962;51.312;7.378;2023-04-27T07:12:49;97803.91;;;5.96;100.00
5872;BME280;2962;51.312;7.378;2023-04-27T07:15:14;97810.50;;;6.07;100.00
5872;BME280;2962;51.312;7.378;2023-04-27T07:17:39;97803.78;;;6.34;100.00
5872;BME280;2962;51.312;7.378;2023-04-27T07:20:06;97810.53;;;6.41;100.00
5872;BME280;2962;51.312;7.378;2023-04-27T07:22:32;97802.03;;;6.51;100.00
5872;BME280;2962;51.312;7.378;2023-04-27T07:24:58;97808.34;;;6.55;100.00
5872;BME280;2962;51.312;7.378;2023-04-27T07:27:23;97806.84;;;6.78;100.00
5872;BME280;2962;51.312;7.378;2023-04-27T07:29:50;97803.38;;;6.90;100.00
5872;BME280;2962;51.312;7.378;2023-04-27T07:32:16;97803.75;;;7.13;100.00
5872;BME280;2962;51.312;7.378;2023-04-27T07:34:41;97803.53;;;7.18;100.00
5872;BME280;2962;51.312;7.378;2023-04-27T07:37:08;97806.72;;;7.32;100.00
5872;BME280;2962;51.312;7.378;2023-04-27T07:39:33;97806.38;;;7.34;100.00
5872;BME280;2962;51.312;7.378;2023-04-27T07:41:58;97811.25;;;7.41;100.00
5872;BME280;2962;51.312;7.378;2023-04-27T07:44:24;97806.06;;;7.48;100.00
5872;BME280;2962;51.312;7.378;2023-04-27T07:46:49;97796.81;;;7.61;100.00
5872;BME280;2962;51.312;7.378;2023-04-27T07:49:18;97809.56;;;7.73;100.00
5872;BME280;2962;51.312;7.378;2023-04-27T07:51:44;97805.34;;;7.88;100.00
5872;BME280;2962;51.312;7.378;2023-04-27T07:54:09;97805.00;;;8.01;100.00
5872;BME280;2962;51.312;7.378;2023-04-27T07:56:35;97813.44;;;8.12;100.00
5872;BME280;2962;51.312;7.378;2023-04-27T07:59:00;97809.38;;;8.06;100.00
5872;BME280;2962;51.312;7.378;2023-04-27T08:01:25;97796.78;;;8.26;100.00
5872;BME280;2962;51.312;7.378;2023-04-27T08:03:50;97819.94;;;8.48;100.00
5872;BME280;2962;51.312;7.378;2023-04-27T08:06:17;97815.97;;;8.33;100.00
5872;BME280;2962;51.312;7.378;2023-04-27T08:08:43;97817.03;;;8.28;100.00
5872;BME280;2962;51.312;7.378;2023-04-27T08:11:11;97813.59;;;8.44;100.00
5872;BME280;2962;51.312;7.378;2023-04-27T08:13:37;97803.44;;;8.41;100.00
5872;BME280;2962;51.312;7.378;2023-04-27T08:16:02;97800.19;;;8.63;100.00
5872;BME280;2962;51.312;7.378;2023-04-27T08:18:28;97811.19;;;8.83;100.00
5872;BME280;2962;51.312;7.378;2023-04-27T08:20:53;97805.47;;;8.88;100.00
5872;BME280;2962;51.312;7.378;2023-04-27T08:23:19;97804.38;;;8.89;100.00
5872;BME280;2962;51.312;7.378;2023-04-27T08:25:44;97798.31;;;8.95;100.00
5872;BME280;2962;51.312;7.378;2023-04-27T08:28:10;97804.69;;;8.87;100.00
5872;BME280;2962;51.312;7.378;2023-04-27T08:30:35;97812.09;;;9.02;100.00
5872;BME280;2962;51.312;7.378;2023-04-27T08:33:00;97802.19;;;9.10;100.00
5872;BME280;2962;51.312;7.378;2023-04-27T08:35:26;97796.50;;;9.15;100.00
5872;BME280;2962;51.312;7.378;2023-04-27T08:37:51;97798.88;;;9.33;100.00
5872;BME280;2962;51.312;7.378;2023-04-27T08:40:18;97809.94;;;9.24;100.00
5872;BME280;2962;51.312;7.378;2023-04-27T08:42:54;97795.09;;;9.69;100.00
5872;BME280;2962;51.312;7.378;2023-04-27T08:45:21;97801.00;;;9.90;100.00
5872;BME280;2962;51.312;7.378;2023-04-27T08:47:49;97793.31;;;9.76;100.00
5872;BME280;2962;51.312;7.378;2023-04-27T08:50:15;97780.78;;;9.91;100.00
5872;BME280;2962;51.312;7.378;2023-04-27T08:52:47;97788.72;;;10.16;100.00
5872;BME280;2962;51.312;7.378;2023-04-27T08:55:13;97798.03;;;10.50;100.00
5872;BME280;2962;51.312;7.378;2023-04-27T08:57:38;97791.50;;;10.55;100.00
5872;BME280;2962;51.312;7.378;2023-04-27T09:00:05;97797.44;;;11.03;100.00
5872;BME280;2962;51.312;7.378;2023-04-27T09:02:46;97799.56;;;11.13;100.00
5872;BME280;2962;51.312;7.378;2023-04-27T09:05:19;97786.06;;;10.97;100.00
5872;BME280;2962;51.312;7.378;2023-04-27T09:08:14;97799.44;;;11.06;100.00
5872;BME280;2962;51.312;7.378;2023-04-27T09:10:48;97799.09;;;11.30;100.00
5872;BME280;2962;51.312;7.378;2023-04-27T09:13:14;97799.72;;;11.69;100.00
5872;BME280;2962;51.312;7.378;2023-04-27T09:15:44;97792.00;;;11.75;100.00
5872;BME280;2962;51.312;7.378;2023-04-27T09:18:21;97799.09;;;12.06;100.00
5872;BME280;2962;51.312;7.378;2023-04-27T09:20:51;97800.75;;;12.11;100.00
5872;BME280;2962;51.312;7.378;2023-04-27T09:25:52;97783.75;;;12.25;100.00
5872;BME280;2962;51.312;7.378;2023-04-27T09:28:18;97782.63;;;11.72;100.00
5872;BME280;2962;51.312;7.378;2023-04-27T09:30:51;97772.72;;;11.64;100.00
5872;BME280;2962;51.312;7.378;2023-04-27T09:33:30;97773.47;;;12.14;100.00
5872;BME280;2962;51.312;7.378;2023-04-27T09:35:58;97779.69;;;12.11;100.00
5872;BME280;2962;51.312;7.378;2023-04-27T09:38:24;97774.72;;;12.20;100.00
5872;BME280;2962;51.312;7.378;2023-04-27T09:40:50;97777.16;;;12.29;100.00
5872;BME280;2962;51.312;7.378;2023-04-27T09:43:16;97773.47;;;12.14;100.00
5872;BME280;2962;51.312;7.378;2023-04-27T09:45:42;97766.53;;;12.20;100.00
5872;BME280;2962;51.312;7.378;2023-04-27T09:48:08;97771.75;;;12.33;100.00
5872;BME280;2962;51.312;7.378;2023-04-27T09:50:41;97771.28;;;12.57;100.00
5872;BME280;2962;51.312;7.378;2023-04-27T09:53:12;97764.91;;;12.16;94.94
5872;BME280;2962;51.312;7.378;2023-04-27T10:01:46;97777.22;;;11.27;97.88
5872;BME280;2962;51.312;7.378;2023-04-27T10:07:05;97763.19;;;12.34;90.82
5872;BME280;2962;51.312;7.378;2023-04-27T10:14:49;97768.84;;;11.88;92.01
5872;BME280;2962;51.312;7.378;2023-04-27T10:17:16;97757.97;;;11.92;99.78
5872;BME280;2962;51.312;7.378;2023-04-27T10:19:52;97763.91;;;12.61;85.64
5872;BME280;2962;51.312;7.378;2023-04-27T10:22:19;97761.34;;;12.42;87.04
5872;BME280;2962;51.312;7.378;2023-04-27T10:24:48;97747.28;;;12.77;100.00
5872;BME280;2962;51.312;7.378;2023-04-27T10:27:16;97754.50;;;12.59;93.80
5872;BME280;2962;51.312;7.378;2023-04-27T10:29:45;97745.38;;;13.26;80.21
5872;BME280;2962;51.312;7.378;2023-04-27T10:32:23;97741.31;;;13.09;83.16
5872;BME280;2962;51.312;7.378;2023-04-27T10:34:50;97736.88;;;12.93;82.98
5872;BME280;2962;51.312;7.378;2023-04-27T10:37:17;97739.00;;;13.11;84.22
5872;BME280;2962;51.312;7.378;2023-04-27T10:39:44;97750.31;;;12.68;84.21
5872;BME280;2962;51.312;7.378;2023-04-27T10:42:10;97739.06;;;13.22;99.84
5872;BME280;2962;51.312;7.378;2023-04-27T10:44:37;97735.34;;;14.03;89.62
5872;BME280;2962;51.312;7.378;2023-04-27T10:47:14;97738.19;;;14.24;78.86
5872;BME280;2962;51.312;7.378;2023-04-27T10:49:40;97729.38;;;14.74;69.54
5872;BME280;2962;51.312;7.378;2023-04-27T10:52:06;97722.31;;;14.65;68.12
5872;BME280;2962;51.312;7.378;2023-04-27T10:54:32;97736.00;;;14.65;66.66
5872;BME280;2962;51.312;7.378;2023-04-27T10:57:15;97727.47;;;15.28;66.78
5872;BME280;2962;51.312;7.378;2023-04-27T10:59:49;97720.41;;;14.87;61.12
5872;BME280;2962;51.312;7.378;2023-04-27T11:02:15;97721.19;;;15.09;59.48
5872;BME280;2962;51.312;7.378;2023-04-27T11:04:40;97726.66;;;15.63;62.38
5872;BME280;2962;51.312;7.378;2023-04-27T11:07:09;97735.31;;;15.47;50.24
5872;BME280;2962;51.312;7.378;2023-04-27T11:09:37;97723.53;;;15.47;53.38
5872;BME280;2962;51.312;7.378;2023-04-27T11:12:07;97716.50;;;14.99;54.31
5872;BME280;2962;51.312;7.378;2023-04-27T11:14:35;97713.13;;;14.22;58.30
5872;BME280;2962;51.312;7.378;2023-04-27T11:17:02;97723.19;;;13.97;62.10
5872;BME280;2962;51.312;7.378;2023-04-27T11:19:28;97728.00;;;14.21;57.24
5872;BME280;2962;51.312;7.378;2023-04-27T11:22:02;97711.75;;;15.10;50.90
5872;BME280;2962;51.312;7.378;2023-04-27T11:24:27;97718.16;;;14.09;55.78
5872;BME280;2962;51.312;7.378;2023-04-27T11:26:53;97708.66;;;13.27;63.85
5872;BME280;2962;51.312;7.378;2023-04-27T11:29:18;97711.47;;;14.00;63.12
5872;BME280;2962;51.312;7.378;2023-04-27T11:31:46;97703.97;;;13.27;62.78
5872;BME280;2962;51.312;7.378;2023-04-27T11:34:23;97709.22;;;14.20;55.26
5872;BME280;2962;51.312;7.378;2023-04-27T11:37:03;97716.69;;;14.26;59.61
5872;BME280;2962;51.312;7.378;2023-04-27T11:39:33;97715.28;;;14.86;55.48
5872;BME280;2962;51.312;7.378;2023-04-27T11:42:21;97714.53;;;15.35;54.48
5872;BME280;2962;51.312;7.378;2023-04-27T11:44:58;97713.63;;;16.06;51.30
5872;BME280;2962;51.312;7.378;2023-04-27T11:47:25;97708.28;;;16.62;49.60
5872;BME280;2962;51.312;7.378;2023-04-27T11:49:54;97715.72;;;16.69;43.91
5872;BME280;2962;51.312;7.378;2023-04-27T11:52:21;97708.44;;;16.30;48.55
5872;BME280;2962;51.312;7.378;2023-04-27T11:54:52;97717.72;;;16.61;44.90
5872;BME280;2962;51.312;7.378;2023-04-27T11:57:27;97701.34;;;17.02;44.96
5872;BME280;2962;51.312;7.378;2023-04-27T11:59:54;97700.69;;;17.36;44.22
5872;BME280;2962;51.312;7.378;2023-04-27T12:02:19;97699.69;;;17.98;43.31
5872;BME280;2962;51.312;7.378;2023-04-27T12:04:51;97695.25;;;18.08;43.06
5872;BME280;2962;51.312;7.378;2023-04-27T12:07:17;97692.69;;;18.24;42.96
5872;BME280;2962;51.312;7.378;2023-04-27T12:09:42;97697.56;;;18.13;43.87
5872;BME280;2962;51.312;7.378;2023-04-27T12:12:09;97691.81;;;18.31;41.50
5872;BME280;2962;51.312;7.378;2023-04-27T12:14:34;97693.28;;;18.39;42.94
5872;BME280;2962;51.312;7.378;2023-04-27T12:17:00;97692.53;;;18.66;39.35
5872;BME280;2962;51.312;7.378;2023-04-27T12:19:25;97691.94;;;18.20;46.56
5872;BME280;2962;51.312;7.378;2023-04-27T12:21:51;97692.94;;;18.07;47.38
5872;BME280;2962;51.312;7.378;2023-04-27T12:24:17;97693.28;;;18.97;39.39
5872;BME280;2962;51.312;7.378;2023-04-27T12:26:42;97686.13;;;18.76;40.64
5872;BME280;2962;51.312;7.378;2023-04-27T12:29:07;97687.06;;;18.93;41.45
5872;BME280;2962;51.312;7.378;2023-04-27T12:31:33;97679.19;;;18.34;41.34
5872;BME280;2962;51.312;7.378;2023-04-27T12:33:58;97674.75;;;18.70;40.02
5872;BME280;2962;51.312;7.378;2023-04-27T12:36:23;97665.44;;;18.30;41.42
5872;BME280;2962;51.312;7.378;2023-04-27T12:38:50;97669.25;;;17.33;41.93
5872;BME280;2962;51.312;7.378;2023-04-27T12:41:15;97670.28;;;17.88;42.52
5872;BME280;2962;51.312;7.378;2023-04-27T12:43:41;97669.38;;;16.56;42.55
5872;BME280;2962;51.312;7.378;2023-04-27T12:46:07;97678.88;;;16.48;46.36
5872;BME280;2962;51.312;7.378;2023-04-27T12:48:32;97656.09;;;14.71;50.72
5872;BME280;2962;51.312;7.378;2023-04-27T12:50:58;97673.31;;;14.53;57.83
5872;BME280;2962;51.312;7.378;2023-04-27T12:53:23;97677.66;;;14.65;60.33
5872;BME280;2962;51.312;7.378;2023-04-27T12:55:49;97667.84;;;15.10;54.15
5872;BME280;2962;51.312;7.378;2023-04-27T12:58:14;97672.75;;;16.19;51.12
5872;BME280;2962;51.312;7.378;2023-04-27T13:00:41;97657.16;;;17.62;46.84
5872;BME280;2962;51.312;7.378;2023-04-27T13:03:07;97666.78;;;17.84;41.36
5872;BME280;2962;51.312;7.378;2023-04-27T13:05:32;97664.31;;;19.99;38.29
5872;BME280;2962;51.312;7.378;2023-04-27T13:07:57;97655.41;;;20.28;35.79
5872;BME280;2962;51.312;7.378;2023-04-27T13:10:23;97660.03;;;19.94;36.71
5872;BME280;2962;51.312;7.378;2023-04-27T13:12:48;97656.03;;;17.93;38.67
5872;BME280;2962;51.312;7.378;2023-04-27T13:15:14;97658.50;;;18.18;41.71
5872;BME280;2962;51.312;7.378;2023-04-27T13:17:39;97667.06;;;18.54;40.09
5872;BME280;2962;51.312;7.378;2023-04-27T13:20:05;97663.78;;;18.36;39.79
5872;BME280;2962;51.312;7.378;2023-04-27T13:22:31;97658.72;;;18.31;41.35
5872;BME280;2962;51.312;7.378;2023-04-27T13:24:57;97663.00;;;18.63;39.95
5872;BME280;2962;51.312;7.378;2023-04-27T13:27:22;97650.78;;;18.64;40.00
5872;BME280;2962;51.312;7.378;2023-04-27T13:29:49;97657.56;;;18.86;40.95
5872;BME280;2962;51.312;7.378;2023-04-27T13:32:15;97660.31;;;20.20;41.35